Time;durP1;ratioP1;P1;durP2;ratioP2;P2;SDS_P1;SDS_P2;PMS_P1;PMS_P2;Temp;Humidity;BMP_temperature;BMP_pressure;BME280_temperature;BME280_humidity;BME280_pressure;Samples;Min_cycle;Max_cycle;Signal;HPM_P1;HPM_P2
2021/12/01 00:00:32;;;;;;;;;;;;;;;23.03;22.35;97181.09;4981379;28;1306;-78
2021/12/01 00:02:57;;;;;;;;;;;;;;;22.15;23.50;97175.97;4981450;28;1257;-78
2021/12/01 00:05:24;;;;;;;;;;;;;;;22.80;22.19;97180.47;4982178;28;862;-78
2021/12/01 00:07:50;;;;;;;;;;;;;;;22.96;22.13;97170.09;4931784;29;946;-77
2021/12/01 00:10:15;;;;;;;;;;;;;;;22.64;22.23;97177.94;4923963;29;990;-77
2021/12/01 00:12:41;;;;;;;;;;;;;;;22.68;22.49;97178.56;4962641;29;1282;-78
2021/12/01 00:15:06;;;;;;;;;;;;;;;22.08;23.21;97190.41;4976658;28;1125;-78
2021/12/01 00:17:32;;;;;;;;;;;;;;;22.35;22.96;97182.00;4981541;28;1155;-78
2021/12/01 00:19:59;;;;;;;;;;;;;;;22.73;22.26;97192.09;4980604;28;1911;-78
2021/12/01 00:22:24;;;;;;;;;;;;;;;22.21;22.75;97198.81;4937923;29;1055;-78
2021/12/01 00:24:50;;;;;;;;;;;;;;;21.79;23.35;97202.88;4942635;29;935;-78
2021/12/01 00:27:16;;;;;;;;;;;;;;;22.42;22.63;97208.44;4943278;29;973;-78
2021/12/01 00:29:41;;;;;;;;;;;;;;;22.38;22.53;97214.25;4965657;28;905;-78
2021/12/01 00:32:07;;;;;;;;;;;;;;;22.44;22.22;97220.13;4932441;29;834;-77
2021/12/01 00:34:33;;;;;;;;;;;;;;;22.47;22.14;97231.28;4918642;29;944;-78
2021/12/01 00:37:01;;;;;;;;;;;;;;;22.05;22.82;97216.84;4943423;29;921;-78
2021/12/01 00:39:37;;;;;;;;;;;;;;;21.67;23.68;97220.78;5098662;27;1220;-78
2021/12/01 00:42:03;;;;;;;;;;;;;;;22.54;22.32;97230.22;5118699;28;1088;-78
2021/12/01 00:44:30;;;;;;;;;;;;;;;22.72;22.27;97218.88;5100316;28;1420;-78
2021/12/01 00:47:05;;;;;;;;;;;;;;;22.49;22.27;97216.66;5098426;28;841;-79
2021/12/01 00:49:30;;;;;;;;;;;;;;;22.72;22.34;97210.38;5036821;28;967;-78
2021/12/01 00:51:56;;;;;;;;;;;;;;;22.70;22.16;97214.97;5038889;28;847;-79
2021/12/01 00:54:24;;;;;;;;;;;;;;;22.74;22.15;97210.72;5016874;28;897;-78
2021/12/01 00:56:49;;;;;;;;;;;;;;;22.50;22.77;97206.91;5019359;28;858;-79
2021/12/01 00:59:15;;;;;;;;;;;;;;;22.35;22.73;97207.50;4977805;28;1919;-79
2021/12/01 01:01:41;;;;;;;;;;;;;;;22.27;22.99;97211.09;4959679;29;922;-78
2021/12/01 01:04:06;;;;;;;;;;;;;;;22.25;22.92;97205.13;4938746;29;967;-78
2021/12/01 01:06:32;;;;;;;;;;;;;;;22.27;22.77;97211.09;4940454;29;923;-78
2021/12/01 01:08:57;;;;;;;;;;;;;;;22.28;22.94;97204.97;4922421;29;889;-78
2021/12/01 01:16:50;;;;;;;;;;;;;;;22.31;22.74;97201.19;4920741;29;866;-78
2021/12/01 01:19:16;;;;;;;;;;;;;;;22.11;22.91;97198.00;4904575;29;2003;-78
2021/12/01 01:21:44;;;;;;;;;;;;;;;22.25;22.77;97202.28;4884573;29;965;-78
2021/12/01 01:24:12;;;;;;;;;;;;;;;22.49;22.29;97211.00;4863370;29;905;-78
2021/12/01 01:26:38;;;;;;;;;;;;;;;22.63;22.29;97204.69;4883949;29;913;-78
2021/12/01 01:29:04;;;;;;;;;;;;;;;22.73;21.77;97209.13;4888880;29;938;-78
2021/12/01 01:31:29;;;;;;;;;;;;;;;22.39;22.11;97212.25;4959851;28;1124;-78
2021/12/01 01:33:57;;;;;;;;;;;;;;;22.27;22.43;97206.22;4957197;29;1000;-79
2021/12/01 01:36:23;;;;;;;;;;;;;;;21.98;23.17;97214.31;4959943;29;875;-78
2021/12/01 01:38:48;;;;;;;;;;;;;;;22.71;22.54;97211.66;4956441;28;1910;-78
2021/12/01 01:41:14;;;;;;;;;;;;;;;22.96;22.72;97215.47;4954670;28;1042;-78
2021/12/01 01:43:40;;;;;;;;;;;;;;;22.40;23.19;97208.16;4956486;29;1367;-78
2021/12/01 01:46:07;;;;;;;;;;;;;;;22.12;23.84;97199.56;4921915;29;937;-78
2021/12/01 01:48:33;;;;;;;;;;;;;;;21.94;24.31;97199.50;4900777;29;1211;-78
2021/12/01 01:50:59;;;;;;;;;;;;;;;22.61;23.70;97202.34;4908302;29;940;-78
2021/12/01 01:53:26;;;;;;;;;;;;;;;22.81;23.25;97199.03;4905925;29;887;-78
2021/12/01 01:55:53;;;;;;;;;;;;;;;22.68;23.44;97195.56;4908692;29;907;-78
2021/12/01 01:58:18;;;;;;;;;;;;;;;22.31;23.61;97184.19;4929620;29;1903;-78
2021/12/01 02:00:57;;;;;;;;;;;;;;;22.29;23.66;97191.59;4930141;29;1092;-78
2021/12/01 02:03:23;;;;;;;;;;;;;;;22.57;23.66;97189.56;4941605;29;884;-78
2021/12/01 02:05:49;;;;;;;;;;;;;;;22.75;23.53;97189.59;4943938;29;841;-79
2021/12/01 02:08:19;;;;;;;;;;;;;;;22.88;23.35;97181.72;4982526;28;939;-78
2021/12/01 02:10:51;;;;;;;;;;;;;;;22.95;23.14;97174.16;4989852;28;864;-79
2021/12/01 02:13:17;;;;;;;;;;;;;;;22.50;23.68;97170.06;5001508;28;1196;-78
2021/12/01 02:15:45;;;;;;;;;;;;;;;22.21;24.04;97161.97;4984720;28;880;-78
2021/12/01 02:18:10;;;;;;;;;;;;;;;22.30;24.34;97150.66;4982394;28;1902;-78
2021/12/01 02:20:36;;;;;;;;;;;;;;;22.81;23.73;97141.53;4929867;29;921;-77
2021/12/01 02:23:02;;;;;;;;;;;;;;;22.82;23.49;97138.22;4936648;29;907;-78
2021/12/01 02:25:27;;;;;;;;;;;;;;;22.47;23.72;97145.47;4927464;29;876;-79
2021/12/01 02:27:53;;;;;;;;;;;;;;;22.12;24.32;97133.63;4925540;29;945;-78
2021/12/01 02:30:18;;;;;;;;;;;;;;;22.52;24.05;97136.34;4925660;29;918;-78
2021/12/01 02:32:44;;;;;;;;;;;;;;;22.55;24.03;97141.06;4944999;29;1162;-79
2021/12/01 02:35:09;;;;;;;;;;;;;;;22.03;24.26;97121.00;4963232;29;922;-78
2021/12/01 02:37:38;;;;;;;;;;;;;;;21.98;24.51;97120.81;4907112;29;1980;-78
2021/12/01 02:40:04;;;;;;;;;;;;;;;22.04;24.50;97121.78;4856276;29;1269;-78
2021/12/01 02:42:29;;;;;;;;;;;;;;;22.08;24.67;97114.72;4866886;29;939;-78
2021/12/01 02:44:55;;;;;;;;;;;;;;;21.77;25.08;97116.84;4879707;29;899;-78
2021/12/01 02:47:21;;;;;;;;;;;;;;;22.01;24.48;97120.66;4884396;29;886;-78
2021/12/01 02:49:47;;;;;;;;;;;;;;;21.87;24.74;97123.31;4886866;29;962;-78
2021/12/01 02:52:13;;;;;;;;;;;;;;;21.91;24.78;97126.78;4888838;29;1324;-78
2021/12/01 02:54:39;;;;;;;;;;;;;;;21.97;24.58;97124.94;4886523;29;819;-78
2021/12/01 02:57:05;;;;;;;;;;;;;;;21.87;24.91;97118.44;4904506;29;1354;-78
2021/12/01 02:59:31;;;;;;;;;;;;;;;22.00;24.41;97123.97;4930209;28;1908;-78
2021/12/01 03:01:56;;;;;;;;;;;;;;;21.97;24.77;97120.03;4910729;29;920;-78
2021/12/01 03:04:22;;;;;;;;;;;;;;;21.84;24.58;97117.31;4948490;29;876;-78
2021/12/01 03:06:50;;;;;;;;;;;;;;;21.89;24.67;97121.59;4963517;29;1021;-77
2021/12/01 03:09:16;;;;;;;;;;;;;;;21.78;24.90;97119.19;4977226;28;975;-78
2021/12/01 03:11:42;;;;;;;;;;;;;;;21.66;25.31;97122.94;4990952;28;995;-78
2021/12/01 03:14:11;;;;;;;;;;;;;;;21.37;25.40;97117.63;5000330;28;1108;-78
2021/12/01 03:16:37;;;;;;;;;;;;;;;21.69;24.84;97122.00;4986309;28;887;-78
2021/12/01 03:19:03;;;;;;;;;;;;;;;21.63;25.17;97123.09;5000793;28;1966;-77
2021/12/01 03:21:28;;;;;;;;;;;;;;;21.90;24.55;97125.19;4956612;28;1416;-78
2021/12/01 03:23:54;;;;;;;;;;;;;;;21.66;25.17;97134.28;4977808;28;937;-78
2021/12/01 03:26:19;;;;;;;;;;;;;;;21.43;25.32;97127.09;4964751;29;961;-78
2021/12/01 03:28:45;;;;;;;;;;;;;;;21.65;24.91;97131.88;4961354;29;861;-78
2021/12/01 03:31:10;;;;;;;;;;;;;;;21.55;24.89;97122.56;4968407;28;930;-78
2021/12/01 03:33:36;;;;;;;;;;;;;;;21.67;25.06;97123.72;4975441;28;922;-78
2021/12/01 03:36:01;;;;;;;;;;;;;;;21.39;24.98;97122.81;4983123;28;1073;-78
2021/12/01 03:38:27;;;;;;;;;;;;;;;21.53;25.09;97108.88;4998964;28;1965;-78
2021/12/01 03:40:54;;;;;;;;;;;;;;;20.57;26.24;97118.19;5002974;28;1126;-78
2021/12/01 03:43:19;;;;;;;;;;;;;;;20.45;26.58;97121.84;4980102;28;1294;-78
2021/12/01 03:45:45;;;;;;;;;;;;;;;21.43;25.21;97112.16;4968591;28;953;-78
2021/12/01 03:48:10;;;;;;;;;;;;;;;21.61;24.79;97108.63;4980159;28;880;-78
2021/12/01 03:50:36;;;;;;;;;;;;;;;21.45;25.16;97116.09;4983350;28;930;-78
2021/12/01 03:53:02;;;;;;;;;;;;;;;21.61;24.88;97117.91;4981004;28;971;-78
2021/12/01 03:55:27;;;;;;;;;;;;;;;21.14;25.70;97115.28;4981903;28;928;-78
2021/12/01 03:57:53;;;;;;;;;;;;;;;22.05;25.07;97115.63;4964866;28;1899;-78
2021/12/01 04:00:18;;;;;;;;;;;;;;;22.47;24.53;97117.13;4981179;28;916;-78
2021/12/01 04:02:45;;;;;;;;;;;;;;;22.50;24.47;97116.97;4919864;28;917;-77
2021/12/01 04:05:10;;;;;;;;;;;;;;;22.56;24.33;97119.97;4934483;29;892;-78
2021/12/01 04:07:36;;;;;;;;;;;;;;;22.54;24.41;97128.16;4912707;29;969;-78
2021/12/01 04:10:03;;;;;;;;;;;;;;;22.54;24.21;97128.16;4922857;29;957;-78
2021/12/01 04:12:29;;;;;;;;;;;;;;;22.14;24.57;97123.41;4938152;29;967;-78
2021/12/01 04:14:54;;;;;;;;;;;;;;;21.89;25.10;97134.97;4937996;28;1065;-77
2021/12/01 04:17:20;;;;;;;;;;;;;;;22.24;24.95;97132.72;4938848;29;1903;-76
2021/12/01 04:19:45;;;;;;;;;;;;;;;22.48;24.34;97141.38;4955893;28;1004;-77
2021/12/01 04:22:11;;;;;;;;;;;;;;;22.66;23.98;97112.25;4997353;28;957;-76
2021/12/01 04:24:36;;;;;;;;;;;;;;;22.72;23.78;97122.47;4995312;28;1266;-77
2021/12/01 04:27:02;;;;;;;;;;;;;;;22.65;23.88;97119.19;4996289;28;1246;-76
2021/12/01 04:29:28;;;;;;;;;;;;;;;22.40;23.98;97131.63;4995478;28;1301;-77
2021/12/01 04:31:53;;;;;;;;;;;;;;;22.19;24.45;97136.94;4996428;28;1281;-76
2021/12/01 04:34:20;;;;;;;;;;;;;;;22.24;24.88;97150.50;4995795;28;1130;-76
2021/12/01 04:36:47;;;;;;;;;;;;;;;22.44;24.47;97147.22;4996727;28;977;-76
2021/12/01 04:39:13;;;;;;;;;;;;;;;22.42;24.22;97149.72;4999868;28;1918;-76
2021/12/01 04:41:41;;;;;;;;;;;;;;;22.55;24.04;97155.25;5035809;28;1039;-77
2021/12/01 04:44:12;;;;;;;;;;;;;;;22.34;24.05;97160.59;5034916;28;1057;-77
2021/12/01 04:46:45;;;;;;;;;;;;;;;22.15;24.32;97153.31;5036167;28;983;-76
2021/12/01 04:49:11;;;;;;;;;;;;;;;22.16;24.84;97146.38;5026946;28;1030;-76
2021/12/01 04:51:38;;;;;;;;;;;;;;;22.45;24.21;97153.66;5075798;28;1013;-76
2021/12/01 04:54:03;;;;;;;;;;;;;;;22.61;24.04;97156.19;5074506;28;948;-76
2021/12/01 04:56:29;;;;;;;;;;;;;;;22.63;23.72;97153.66;5076013;28;1011;-76
2021/12/01 04:58:55;;;;;;;;;;;;;;;22.60;23.63;97157.47;5074434;28;1914;-77
2021/12/01 05:01:20;;;;;;;;;;;;;;;22.21;24.23;97151.41;5076308;28;1698;-76
2021/12/01 05:03:46;;;;;;;;;;;;;;;22.25;24.33;97151.28;5074154;28;943;-76
2021/12/01 05:06:13;;;;;;;;;;;;;;;22.44;24.13;97152.88;5076170;28;1006;-76
2021/12/01 05:08:38;;;;;;;;;;;;;;;22.53;23.93;97152.09;5074091;28;1018;-76
2021/12/01 05:11:04;;;;;;;;;;;;;;;22.65;23.91;97156.03;5076557;28;928;-76
2021/12/01 05:13:29;;;;;;;;;;;;;;;22.52;23.79;97153.34;5073735;28;1549;-76
2021/12/01 05:15:55;;;;;;;;;;;;;;;22.17;24.04;97156.44;5056208;28;1084;-76
2021/12/01 05:18:21;;;;;;;;;;;;;;;22.17;24.48;97161.31;5053995;28;1902;-75
2021/12/01 05:20:46;;;;;;;;;;;;;;;22.57;23.84;97164.06;5054094;28;952;-76
2021/12/01 05:23:15;;;;;;;;;;;;;;;22.73;23.56;97163.75;5057447;28;969;-76
2021/12/01 05:25:41;;;;;;;;;;;;;;;22.55;23.78;97166.59;5078067;28;985;-76
2021/12/01 05:28:06;;;;;;;;;;;;;;;22.34;24.20;97166.25;5078280;28;960;-76
2021/12/01 05:30:32;;;;;;;;;;;;;;;22.00;24.51;97170.06;5079295;28;988;-76
2021/12/01 05:33:04;;;;;;;;;;;;;;;22.39;24.49;97169.72;5044476;28;921;-76
2021/12/01 05:35:30;;;;;;;;;;;;;;;22.50;23.95;97170.84;5038563;28;966;-76
2021/12/01 05:37:55;;;;;;;;;;;;;;;22.63;23.72;97165.00;5038580;28;1980;-76
2021/12/01 05:40:21;;;;;;;;;;;;;;;22.59;23.76;97172.91;5038091;28;991;-76
2021/12/01 05:42:46;;;;;;;;;;;;;;;22.20;24.04;97168.91;5038382;28;1660;-76
2021/12/01 05:45:12;;;;;;;;;;;;;;;21.88;24.61;97165.34;5021417;28;1880;-76
2021/12/01 05:47:37;;;;;;;;;;;;;;;22.40;24.41;97168.47;5038740;28;1014;-76
2021/12/01 05:50:03;;;;;;;;;;;;;;;22.56;23.88;97165.31;5021325;28;954;-76
2021/12/01 05:52:29;;;;;;;;;;;;;;;22.63;23.98;97165.78;5022042;28;971;-76
2021/12/01 05:54:54;;;;;;;;;;;;;;;22.67;23.79;97174.16;5052684;28;1735;-76
2021/12/01 05:57:20;;;;;;;;;;;;;;;22.18;23.90;97175.03;5042014;28;1910;-76
2021/12/01 05:59:45;;;;;;;;;;;;;;;22.09;24.41;97170.09;5057824;28;1143;-76
2021/12/01 06:02:11;;;;;;;;;;;;;;;21.80;25.28;97173.31;5058790;28;938;-76
2021/12/01 06:04:36;;;;;;;;;;;;;;;22.47;24.13;97177.44;5057726;28;1545;-76
2021/12/01 06:07:02;;;;;;;;;;;;;;;22.63;23.78;97179.19;5059361;28;1039;-76
2021/12/01 06:09:27;;;;;;;;;;;;;;;22.61;23.40;97181.72;5024204;28;1208;-76
2021/12/01 06:11:53;;;;;;;;;;;;;;;22.16;24.37;97177.53;5059450;28;997;-76
2021/12/01 06:14:18;;;;;;;;;;;;;;;22.09;24.18;97177.81;5079320;28;1598;-76
2021/12/01 06:16:45;;;;;;;;;;;;;;;22.30;24.14;97182.63;5080719;28;997;-76
2021/12/01 06:19:11;;;;;;;;;;;;;;;22.63;23.58;97182.00;5079980;28;1994;-76
2021/12/01 06:21:36;;;;;;;;;;;;;;;22.75;23.77;97194.50;5080706;28;944;-75
2021/12/01 06:24:02;;;;;;;;;;;;;;;22.52;23.41;97187.38;5079185;28;1536;-76
2021/12/01 06:26:27;;;;;;;;;;;;;;;22.21;24.18;97191.09;5080345;28;1019;-76
2021/12/01 06:28:53;;;;;;;;;;;;;;;22.08;24.22;97194.03;5078687;28;911;-76
2021/12/01 06:31:18;;;;;;;;;;;;;;;22.48;24.02;97192.41;5081188;28;913;-76
2021/12/01 06:33:44;;;;;;;;;;;;;;;22.60;23.88;97188.66;5078592;28;1473;-76
2021/12/01 06:36:10;;;;;;;;;;;;;;;22.56;23.83;97193.69;5113412;28;959;-76
2021/12/01 06:38:35;;;;;;;;;;;;;;;22.85;23.25;97199.69;5078504;28;1973;-77
2021/12/01 06:41:01;;;;;;;;;;;;;;;22.35;23.77;97190.50;5081001;28;945;-76
2021/12/01 06:43:26;;;;;;;;;;;;;;;22.32;24.01;97193.47;5078838;28;1470;-76
2021/12/01 06:45:52;;;;;;;;;;;;;;;22.13;24.63;97198.31;5081278;28;925;-76
2021/12/01 06:48:17;;;;;;;;;;;;;;;22.44;24.20;97203.13;5079014;28;1047;-76
2021/12/01 06:50:43;;;;;;;;;;;;;;;22.70;23.65;97210.06;5080471;28;873;-76
2021/12/01 06:53:09;;;;;;;;;;;;;;;22.60;23.79;97211.31;5078625;28;925;-75
2021/12/01 06:55:34;;;;;;;;;;;;;;;22.34;24.08;97193.81;5077435;28;1332;-76
2021/12/01 06:58:00;;;;;;;;;;;;;;;22.03;24.10;97194.66;5077028;28;1910;-76
2021/12/01 07:00:25;;;;;;;;;;;;;;;22.32;24.39;97197.09;5077341;28;945;-76
2021/12/01 07:02:51;;;;;;;;;;;;;;;22.45;24.06;97193.34;5077296;28;908;-76
2021/12/01 07:05:17;;;;;;;;;;;;;;;22.67;23.45;97181.88;5076588;28;1491;-76
2021/12/01 07:07:42;;;;;;;;;;;;;;;22.69;23.80;97185.00;5057542;28;998;-76
2021/12/01 07:10:09;;;;;;;;;;;;;;;22.35;23.87;97190.50;5056568;28;974;-77
2021/12/01 07:12:35;;;;;;;;;;;;;;;22.20;24.09;97195.19;5057006;28;854;-76
2021/12/01 07:15:00;;;;;;;;;;;;;;;22.22;24.22;97204.00;5036111;28;1590;-76
2021/12/01 07:17:26;;;;;;;;;;;;;;;22.51;23.78;97197.13;5017050;28;1915;-75
2021/12/01 07:19:51;;;;;;;;;;;;;;;22.69;23.68;97200.00;5033649;28;1547;-76
2021/12/01 07:22:17;;;;;;;;;;;;;;;22.75;23.37;97215.13;5037007;28;1008;-76
2021/12/01 07:24:43;;;;;;;;;;;;;;;22.32;24.19;97214.09;5036015;28;1006;-76
2021/12/01 07:27:08;;;;;;;;;;;;;;;22.12;24.24;97212.94;5022646;28;985;-76
2021/12/01 07:29:35;;;;;;;;;;;;;;;22.34;24.01;97217.28;5016640;28;1503;-76
2021/12/01 07:32:01;;;;;;;;;;;;;;;22.49;24.05;97205.34;5017522;28;1007;-76
2021/12/01 07:34:26;;;;;;;;;;;;;;;22.74;23.67;97210.72;5016167;28;959;-76
2021/12/01 07:36:52;;;;;;;;;;;;;;;22.42;23.83;97211.28;5017889;28;1015;-76
2021/12/01 07:39:19;;;;;;;;;;;;;;;22.19;24.32;97212.66;5015653;28;1911;-76
2021/12/01 07:41:45;;;;;;;;;;;;;;;22.25;24.53;97208.75;5016263;28;1662;-76
2021/12/01 07:44:11;;;;;;;;;;;;;;;22.62;23.68;97214.47;4999535;28;1600;-76
2021/12/01 07:46:37;;;;;;;;;;;;;;;22.73;23.43;97226.13;5016491;28;1487;-77
2021/12/01 07:49:02;;;;;;;;;;;;;;;22.50;23.42;97226.75;5015214;28;1043;-76
2021/12/01 07:51:28;;;;;;;;;;;;;;;22.17;24.28;97223.66;5035258;28;1485;-76
2021/12/01 07:53:55;;;;;;;;;;;;;;;21.87;24.69;97217.56;5075100;28;1616;-76
2021/12/01 07:56:20;;;;;;;;;;;;;;;22.30;24.08;97224.34;5079335;28;932;-76
2021/12/01 07:58:46;;;;;;;;;;;;;;;22.56;23.97;97233.38;5074369;28;1993;-76
2021/12/01 08:01:11;;;;;;;;;;;;;;;22.80;23.39;97225.84;5059465;28;1074;-76
2021/12/01 08:03:37;;;;;;;;;;;;;;;22.86;23.02;97234.50;5074092;28;1506;-76
2021/12/01 08:06:02;;;;;;;;;;;;;;;22.31;23.70;97229.53;5076439;28;968;-76
2021/12/01 08:08:29;;;;;;;;;;;;;;;22.05;24.19;97231.78;5091473;28;966;-76
2021/12/01 08:10:55;;;;;;;;;;;;;;;22.32;24.07;97230.31;5076946;28;1038;-76
2021/12/01 08:13:20;;;;;;;;;;;;;;;22.49;23.81;97228.00;5078501;28;1598;-76
2021/12/01 08:15:47;;;;;;;;;;;;;;;22.63;23.41;97227.38;5076074;28;986;-76
2021/12/01 08:18:13;;;;;;;;;;;;;;;22.63;23.35;97233.06;5074376;28;1909;-76
2021/12/01 08:20:38;;;;;;;;;;;;;;;22.25;23.97;97242.75;5075673;28;1510;-76
2021/12/01 08:23:04;;;;;;;;;;;;;;;22.04;24.09;97237.94;5076078;28;1658;-76
2021/12/01 08:25:29;;;;;;;;;;;;;;;22.14;24.34;97231.06;5055543;28;915;-76
2021/12/01 08:27:55;;;;;;;;;;;;;;;22.50;23.82;97223.91;5088717;28;1679;-76
2021/12/01 08:30:20;;;;;;;;;;;;;;;22.60;23.36;97222.66;5095272;28;958;-76
2021/12/01 08:32:46;;;;;;;;;;;;;;;22.65;23.32;97236.22;5055318;28;964;-76
2021/12/01 08:35:15;;;;;;;;;;;;;;;22.26;23.68;97237.88;5054561;28;965;-76
2021/12/01 08:37:40;;;;;;;;;;;;;;;21.96;24.36;97237.41;5055030;28;1902;-75
2021/12/01 08:40:06;;;;;;;;;;;;;;;22.18;24.46;97237.38;5049440;28;1490;-75
2021/12/01 08:42:33;;;;;;;;;;;;;;;22.46;23.64;97235.41;5050259;28;1420;-76
2021/12/01 08:44:59;;;;;;;;;;;;;;;22.51;23.76;97237.59;5034235;28;1550;-76
2021/12/01 08:47:26;;;;;;;;;;;;;;;22.68;23.68;97243.00;5043458;28;1760;-76
2021/12/01 08:49:51;;;;;;;;;;;;;;;21.77;24.56;97247.09;5031743;28;966;-76
2021/12/01 08:52:17;;;;;;;;;;;;;;;22.19;24.08;97247.44;5015643;28;950;-76
2021/12/01 08:54:43;;;;;;;;;;;;;;;21.97;24.64;97241.06;5014850;28;957;-75
2021/12/01 08:57:08;;;;;;;;;;;;;;;22.50;23.89;97243.75;5014548;28;1201;-76
2021/12/01 08:59:35;;;;;;;;;;;;;;;22.56;23.80;97239.81;5015801;28;1886;-75
2021/12/01 09:02:01;;;;;;;;;;;;;;;22.62;23.81;97242.81;5018923;28;2077;-76
2021/12/01 09:04:27;;;;;;;;;;;;;;;22.37;23.56;97232.53;5017830;28;2058;-76
2021/12/01 09:06:52;;;;;;;;;;;;;;;22.01;23.97;97247.34;5019158;28;1496;-76
2021/12/01 09:09:18;;;;;;;;;;;;;;;22.37;24.24;97241.03;5020925;28;1072;-75
2021/12/01 09:11:52;;;;;;;;;;;;;;;22.80;24.17;97244.91;5039609;28;957;-76
2021/12/01 09:14:18;;;;;;;;;;;;;;;22.95;23.96;97230.91;5037551;28;1606;-76
2021/12/01 09:16:44;;;;;;;;;;;;;;;22.41;24.61;97227.50;5034235;28;1441;-76
2021/12/01 09:19:09;;;;;;;;;;;;;;;22.39;24.48;97217.91;5037783;28;1902;-76
2021/12/01 09:21:35;;;;;;;;;;;;;;;22.26;25.17;97221.66;5038979;28;946;-76
2021/12/01 09:24:01;;;;;;;;;;;;;;;22.81;24.56;97221.75;5037466;28;1510;-75
2021/12/01 09:26:26;;;;;;;;;;;;;;;22.84;24.07;97226.44;5019040;28;1386;-76
2021/12/01 09:28:52;;;;;;;;;;;;;;;22.48;24.50;97204.53;5017107;28;1585;-76
2021/12/01 09:31:17;;;;;;;;;;;;;;;22.30;25.02;97215.84;5018423;28;1657;-76
2021/12/01 09:33:43;;;;;;;;;;;;;;;22.27;25.60;97209.03;5017525;28;999;-76
2021/12/01 09:36:09;;;;;;;;;;;;;;;22.87;24.26;97202.81;5003406;28;1650;-76
2021/12/01 09:38:34;;;;;;;;;;;;;;;22.68;24.42;97198.41;4997901;28;1971;-76
2021/12/01 09:40:59;;;;;;;;;;;;;;;22.47;24.86;97190.81;4999511;28;1472;-76
2021/12/01 09:43:27;;;;;;;;;;;;;;;22.39;25.02;97181.06;4998095;28;960;-76
2021/12/01 09:45:55;;;;;;;;;;;;;;;22.35;25.53;97178.38;4999612;28;882;-76
2021/12/01 09:48:21;;;;;;;;;;;;;;;22.70;24.69;97175.25;4997940;28;987;-75
2021/12/01 09:50:47;;;;;;;;;;;;;;;22.94;24.40;97166.91;5018693;28;1649;-76
2021/12/01 09:53:13;;;;;;;;;;;;;;;22.34;25.06;97166.25;5017345;28;1016;-75
2021/12/01 09:55:40;;;;;;;;;;;;;;;22.38;25.11;97170.97;5018154;28;1002;-76
2021/12/01 09:58:06;;;;;;;;;;;;;;;22.72;24.71;97165.00;5035362;28;1906;-76
2021/12/01 10:00:32;;;;;;;;;;;;;;;23.27;24.05;97164.97;5037842;28;967;-76
2021/12/01 10:02:58;;;;;;;;;;;;;;;23.00;23.88;97167.84;5059498;28;1584;-76
2021/12/01 10:05:42;;;;;;;;;;;;;;;22.76;24.53;97162.81;5068621;28;906;-76
2021/12/01 10:08:08;;;;;;;;;;;;;;;23.00;23.98;97165.81;5060229;28;1190;-76
2021/12/01 10:10:35;;;;;;;;;;;;;;;22.85;24.14;97157.13;5059072;28;1497;-76
2021/12/01 10:13:01;;;;;;;;;;;;;;;22.70;24.60;97153.34;5073359;28;1654;-76
2021/12/01 10:15:30;;;;;;;;;;;;;;;22.48;24.72;97164.03;5076742;28;2137;-76
2021/12/01 10:18:11;;;;;;;;;;;;;;;22.25;25.19;97180.41;5064612;28;1969;-76
2021/12/01 10:20:37;;;;;;;;;;;;;;;22.02;25.41;97166.75;5068195;28;959;-76
2021/12/01 10:23:12;;;;;;;;;;;;;;;21.56;26.26;97175.13;5058776;28;1210;-76
2021/12/01 10:25:38;;;;;;;;;;;;;;;22.02;25.58;97172.44;5070881;28;1522;-76
2021/12/01 10:28:03;;;;;;;;;;;;;;;22.40;24.88;97174.13;5077494;28;919;-76
2021/12/01 10:30:35;;;;;;;;;;;;;;;22.24;25.03;97178.03;5076773;28;1554;-76
2021/12/01 10:33:07;;;;;;;;;;;;;;;22.38;24.92;97170.97;5059431;28;1535;-76
2021/12/01 10:35:33;;;;;;;;;;;;;;;23.01;23.96;97172.28;5077189;28;928;-76
2021/12/01 10:37:59;;;;;;;;;;;;;;;22.70;24.45;97169.59;5076444;28;1966;-76
2021/12/01 10:40:24;;;;;;;;;;;;;;;22.56;24.49;97171.00;5056534;28;1483;-76
2021/12/01 10:42:56;;;;;;;;;;;;;;;22.29;24.85;97181.03;5048919;28;1542;-76
2021/12/01 10:45:28;;;;;;;;;;;;;;;22.08;25.01;97170.59;5076392;28;948;-76
2021/12/01 10:47:53;;;;;;;;;;;;;;;21.84;25.41;97173.97;5076365;28;927;-75
2021/12/01 10:50:21;;;;;;;;;;;;;;;22.34;24.70;97163.41;5076297;28;937;-76
2021/12/01 10:52:51;;;;;;;;;;;;;;;21.99;25.43;97162.06;5040031;28;1637;-76
2021/12/01 10:55:23;;;;;;;;;;;;;;;22.18;24.97;97163.72;5061059;28;1491;-75
2021/12/01 10:58:09;;;;;;;;;;;;;;;21.96;25.28;97169.44;5076423;28;1910;-76
2021/12/01 11:00:42;;;;;;;;;;;;;;;22.26;24.93;97181.97;5055093;28;1901;-76
2021/12/01 11:03:14;;;;;;;;;;;;;;;22.10;24.97;97177.38;5055898;28;961;-76
2021/12/01 11:05:42;;;;;;;;;;;;;;;22.62;24.63;97186.13;5017043;28;1011;-76
2021/12/01 11:08:11;;;;;;;;;;;;;;;23.06;23.61;97185.84;5015657;28;1234;-75
2021/12/01 11:10:36;;;;;;;;;;;;;;;23.37;23.42;97183.56;4977329;28;1498;-77
2021/12/01 11:13:02;;;;;;;;;;;;;;;23.02;23.67;97191.66;4976939;28;1474;-76
2021/12/01 11:15:32;;;;;;;;;;;;;;;22.48;24.12;97192.41;4976969;28;953;-76
2021/12/01 11:17:57;;;;;;;;;;;;;;;22.12;24.73;97199.56;4966452;28;1918;-76
2021/12/01 11:20:42;;;;;;;;;;;;;;;22.01;24.98;97204.84;4957720;28;950;-76
2021/12/01 11:23:14;;;;;;;;;;;;;;;21.72;25.39;97205.22;4956634;28;1236;-76
2021/12/01 11:25:39;;;;;;;;;;;;;;;22.43;24.49;97196.63;4958020;28;940;-76
2021/12/01 11:28:08;;;;;;;;;;;;;;;22.42;24.56;97199.94;4957182;29;993;-76
2021/12/01 11:30:34;;;;;;;;;;;;;;;22.19;24.30;97193.63;4958546;29;954;-76
2021/12/01 11:32:59;;;;;;;;;;;;;;;22.42;24.23;97197.13;4956569;29;1539;-76
2021/12/01 11:35:25;;;;;;;;;;;;;;;22.23;24.54;97182.94;4957633;28;1146;-76
2021/12/01 11:37:55;;;;;;;;;;;;;;;21.91;25.07;97189.09;4922428;29;1923;-76
2021/12/01 11:40:29;;;;;;;;;;;;;;;21.95;25.28;97186.91;4938024;29;1074;-76
2021/12/01 11:42:55;;;;;;;;;;;;;;;22.28;24.40;97176.63;4994891;28;1520;-75
2021/12/01 11:45:20;;;;;;;;;;;;;;;22.36;24.24;97191.28;4996579;28;998;-75
2021/12/01 11:47:49;;;;;;;;;;;;;;;22.32;24.43;97194.25;4996655;28;973;-76
2021/12/01 11:50:26;;;;;;;;;;;;;;;21.75;25.09;97188.06;4999623;28;1237;-76
2021/12/01 11:53:00;;;;;;;;;;;;;;;21.97;25.14;97198.56;5033488;28;1605;-76
2021/12/01 11:55:44;;;;;;;;;;;;;;;21.88;25.19;97181.53;5035686;28;918;-76
2021/12/01 11:58:10;;;;;;;;;;;;;;;22.36;24.49;97188.44;5034832;28;2364;-76
2021/12/01 12:00:45;;;;;;;;;;;;;;;22.21;24.47;97205.25;5036072;28;1066;-76
2021/12/01 12:03:25;;;;;;;;;;;;;;;22.31;24.48;97209.69;5018708;28;962;-76
2021/12/01 12:06:09;;;;;;;;;;;;;;;22.74;24.01;97210.72;5035808;28;964;-76
2021/12/01 12:08:53;;;;;;;;;;;;;;;22.82;23.59;97223.31;5034425;28;925;-76
2021/12/01 12:11:37;;;;;;;;;;;;;;;22.48;24.36;97215.06;5040402;28;1534;-76
2021/12/01 12:14:05;;;;;;;;;;;;;;;22.31;24.44;97212.53;5054395;28;1557;-76
2021/12/01 12:16:31;;;;;;;;;;;;;;;22.50;24.11;97207.69;5055590;28;913;-76
2021/12/01 12:18:59;;;;;;;;;;;;;;;22.38;24.23;97216.31;5054645;28;1909;-76
2021/12/01 12:24:15;;;;;;;;;;;;;;;22.52;24.28;97210.03;5066996;28;977;-76
2021/12/01 12:26:44;;;;;;;;;;;;;;;22.15;24.51;97206.34;5075935;28;903;-76
2021/12/01 12:29:13;;;;;;;;;;;;;;;22.23;24.44;97205.59;5074891;28;998;-75
2021/12/01 12:31:38;;;;;;;;;;;;;;;22.27;24.81;97217.53;5082279;28;1410;-75
2021/12/01 12:34:08;;;;;;;;;;;;;;;22.25;24.73;97224.97;5077445;28;1088;-76
2021/12/01 12:36:35;;;;;;;;;;;;;;;22.26;24.40;97224.47;5075531;28;990;-76
2021/12/01 12:39:01;;;;;;;;;;;;;;;22.60;24.01;97234.78;5074763;28;1918;-76
2021/12/01 12:41:27;;;;;;;;;;;;;;;22.78;23.97;97236.84;5075242;28;1477;-76
2021/12/01 12:43:53;;;;;;;;;;;;;;;22.87;23.84;97236.06;5054128;28;925;-76
2021/12/01 12:46:19;;;;;;;;;;;;;;;22.43;24.15;97246.88;5015795;28;1044;-76
2021/12/01 12:48:44;;;;;;;;;;;;;;;22.45;24.29;97244.38;5013973;28;929;-76
2021/12/01 12:51:25;;;;;;;;;;;;;;;22.22;24.69;97255.00;5015580;28;1636;-76
2021/12/01 12:54:04;;;;;;;;;;;;;;;22.44;24.42;97248.47;5014367;28;956;-76
2021/12/01 12:56:33;;;;;;;;;;;;;;;22.80;23.80;97245.69;5016070;28;984;-76
2021/12/01 12:59:19;;;;;;;;;;;;;;;22.38;24.35;97244.66;4974938;28;1914;-75
2021/12/01 13:01:44;;;;;;;;;;;;;;;22.50;24.22;97243.75;4969619;28;1649;-75
2021/12/01 13:04:29;;;;;;;;;;;;;;;22.30;24.41;97253.47;4924250;29;1216;-76
2021/12/01 13:06:55;;;;;;;;;;;;;;;22.40;24.38;97253.50;4962146;28;936;-76
2021/12/01 13:09:22;;;;;;;;;;;;;;;22.88;24.00;97261.16;4959681;28;1498;-76